Time;durP1;ratioP1;P1;durP2;ratioP2;P2;SDS_P1;SDS_P2;PMS_P1;PMS_P2;Temp;Humidity;BMP_temperature;BMP_pressure;BME280_temperature;BME280_humidity;BME280_pressure;Samples;Min_cycle;Max_cycle;Signal;HPM_P1;HPM_P2
2024/03/21 00:01:56;;;;;;;52.63;28.90;;;9.40;99.90;;;8.16;88.84;101436.66;6058469;23;20021;-85
2024/03/21 00:05:08;;;;;;;48.90;26.63;;;9.30;99.90;;;8.14;88.64;101432.34;5974648;23;20067;-86
2024/03/21 00:07:46;;;;;;;50.92;27.70;;;;;;;8.09;88.39;101435.06;6025237;23;20022;-87
2024/03/21 00:10:49;;;;;;;54.53;30.50;;;9.20;99.90;;;8.05;89.21;101427.31;6016178;23;20025;-87
2024/03/21 00:17:06;;;;;;;;;;;;;;;;;;;;;
2024/03/21 00:20:16;;;;;;;62.65;30.25;;;9.20;99.90;;;7.99;89.54;101430.94;5960210;23;20593;-87
2024/03/21 00:22:59;;;;;;;56.53;28.98;;;9.20;99.90;;;8.00;89.85;101417.81;5981718;23;20070;-87
2024/03/21 00:25:28;;;;;;;51.00;28.70;;;9.20;99.90;;;8.01;89.66;101413.41;5948422;23;20026;-84
2024/03/21 00:28:11;;;;;;;55.13;29.85;;;;;;;8.04;89.74;101410.75;5883033;23;20030;-87
2024/03/21 00:30:59;;;;;;;51.45;28.95;;;9.20;99.90;;;8.04;89.44;101404.63;5932089;23;20012;-87
2024/03/21 00:33:59;;;;;;;58.78;29.98;;;9.20;99.90;;;8.01;90.10;101401.19;5943454;23;20019;-86
2024/03/21 00:36:56;;;;;;;55.45;29.75;;;9.20;99.90;;;8.00;89.64;101402.06;5960128;23;20055;-87
2024/03/21 00:39:41;;;;;;;;;;;;;;;;;;;;;
2024/03/21 00:42:10;;;;;;;63.25;30.67;;;9.20;99.90;;;7.99;89.66;101394.22;6132468;23;20008;-86
2024/03/21 00:44:39;;;;;;;60.45;30.67;;;;;;;7.99;89.37;101396.84;6058716;23;20031;-86
2024/03/21 00:47:28;;;;;;;59.78;30.83;;;;;;;7.99;89.42;101387.25;6005515;23;20033;-86
2024/03/21 00:49:57;;;;;;;60.30;31.25;;;9.20;99.90;;;7.98;89.70;101384.66;6077110;23;20016;-85
2024/03/21 00:52:49;;;;;;;62.58;31.60;;;9.20;99.90;;;7.99;90.12;101387.25;6014376;23;20055;-87
2024/03/21 00:58:17;;;;;;;57.42;32.50;;;;;;;7.95;90.01;101375.13;6019804;23;20020;-87
2024/03/21 01:00:50;;;;;;;74.18;35.40;;;;;;;7.94;89.95;101376.00;5983630;23;20018;-86
2024/03/21 01:06:17;;;;;;;64.88;32.75;;;;;;;7.90;89.54;101361.25;6011869;23;20018;-86
2024/03/21 01:08:49;;;;;;;62.05;31.17;;;;;;;7.89;90.52;101363.91;5981852;23;20018;-86
2024/03/21 01:11:19;;;;;;;62.92;33.13;;;;;;;7.88;90.31;101359.56;5935476;23;20045;-86
2024/03/21 01:13:58;;;;;;;64.25;34.00;;;;;;;7.88;89.94;101363.03;5980928;23;20011;-87
2024/03/21 01:16:57;;;;;;;67.18;36.28;;;9.10;99.90;;;7.88;90.50;101356.94;6075731;23;20018;-86
2024/03/21 01:19:29;;;;;;;61.50;33.53;;;;;;;7.88;90.86;101354.31;5970539;23;20018;-86
2024/03/21 01:21:58;;;;;;;71.13;33.65;;;9.10;99.90;;;7.88;90.39;101356.94;5987355;23;20007;-87
2024/03/21 01:28:07;;;;;;;59.42;32.40;;;9.10;99.90;;;7.88;90.25;101349.94;5828110;23;20214;-86
2024/03/21 01:31:00;;;;;;;64.55;35.10;;;9.10;99.90;;;7.89;90.54;101351.66;5847783;24;20038;-87
2024/03/21 01:33:28;;;;;;;70.68;37.25;;;;;;;7.89;91.14;101343.78;5904756;23;20028;-86
2024/03/21 01:36:20;;;;;;;68.03;35.88;;;9.10;99.90;;;7.90;91.21;101337.63;5943927;23;20003;-87
2024/03/21 01:38:49;;;;;;;66.03;34.90;;;9.10;99.90;;;7.89;90.36;101343.78;5966504;23;20018;-86
2024/03/21 01:41:44;;;;;;;69.50;37.58;;;;;;;7.91;90.65;101333.28;5913785;23;20051;-86
2024/03/21 01:44:19;;;;;;;69.35;37.08;;;9.10;99.90;;;7.88;90.99;101336.81;5925975;23;20026;-86
2024/03/21 01:46:47;;;;;;;71.45;36.95;;;9.10;99.90;;;7.89;90.98;101325.44;6003663;23;20026;-86
2024/03/21 01:49:37;;;;;;;66.47;36.30;;;9.10;99.90;;;7.90;90.80;101331.53;5974214;23;20098;-85
2024/03/21 01:52:48;;;;;;;73.90;37.63;;;9.10;99.90;;;7.87;91.09;101323.78;5888027;23;20043;-86
2024/03/21 01:55:19;;;;;;;74.03;37.97;;;9.10;99.90;;;7.83;91.28;101315.09;5936838;23;20028;-85
2024/03/21 01:57:57;;;;;;;72.45;38.00;;;9.00;99.90;;;7.86;91.48;101312.44;5906465;23;20011;-86
2024/03/21 02:00:39;;;;;;;72.28;38.97;;;;;;;7.84;91.65;101308.97;5909834;23;20040;-85
2024/03/21 02:03:38;;;;;;;76.30;39.80;;;9.00;99.90;;;7.86;91.55;101306.28;5891540;23;20015;-87
2024/03/21 02:06:10;;;;;;;76.78;40.60;;;;;;;7.83;91.22;101295.91;6045644;23;20786;-85
2024/03/21 02:08:38;;;;;;;74.55;39.55;;;9.00;99.90;;;7.80;91.80;101292.47;6036240;23;20101;-86
2024/03/21 02:11:30;;;;;;;75.80;39.65;;;9.00;99.90;;;7.76;91.89;101284.72;6050796;23;20065;-84
2024/03/21 02:13:59;;;;;;;80.32;41.38;;;9.00;99.90;;;7.75;91.95;101288.22;6063099;23;20038;-85
2024/03/21 02:16:39;;;;;;;71.85;38.65;;;;;;;7.75;91.93;101286.50;6024768;23;20102;-84
2024/03/21 02:19:29;;;;;;;78.38;41.75;;;9.00;99.90;;;7.78;92.21;101290.78;6013595;23;20066;-87
2024/03/21 02:25:11;;;;;;;76.30;39.95;;;9.00;99.90;;;7.78;92.84;101296.03;5971812;23;20526;-86
2024/03/21 02:28:06;;;;;;;70.70;38.33;;;9.00;99.90;;;7.78;92.83;101294.25;5931710;23;20023;-85
2024/03/21 02:30:48;;;;;;;84.60;40.35;;;;;;;7.81;92.92;101293.31;6068253;23;20033;-86
2024/03/21 02:33:59;;;;;;;81.22;41.30;;;9.00;99.90;;;7.79;92.95;101288.09;6028225;23;20037;-86
2024/03/21 02:36:37;;;;;;;86.60;42.22;;;;;;;7.77;92.58;101275.94;6073847;23;20025;-86
2024/03/21 02:39:20;;;;;;;82.80;41.08;;;8.90;99.90;;;7.70;93.30;101274.38;6042735;23;20026;-84
2024/03/21 02:42:09;;;;;;;75.75;41.30;;;;;;;7.69;93.27;101277.88;5996899;23;20274;-85
2024/03/21 02:44:36;;;;;;;79.05;40.53;;;;;;;7.65;93.74;101274.50;6042157;23;20024;-84
2024/03/21 02:47:19;;;;;;;87.18;44.00;;;8.90;99.90;;;7.66;94.13;101272.75;6016696;23;20013;-84
2024/03/21 02:49:54;;;;;;;80.78;43.17;;;8.90;99.90;;;7.65;94.60;101274.50;5993933;23;20053;-84
2024/03/21 02:52:21;;;;;;;85.45;42.90;;;8.80;99.90;;;7.64;94.82;101277.16;5973649;23;20021;-83
2024/03/21 02:54:47;;;;;;;86.20;42.38;;;8.80;99.90;;;7.63;95.04;101273.69;6024349;23;20458;-83
2024/03/21 02:57:23;;;;;;;86.40;42.70;;;8.80;99.90;;;7.59;95.57;101262.41;6064130;23;20010;-84
2024/03/21 02:59:50;;;;;;;86.40;44.92;;;;;;;7.59;95.55;101265.03;6110382;22;20074;-84
2024/03/21 03:02:18;;;;;;;92.15;43.22;;;8.80;99.90;;;7.59;96.56;101262.41;6088428;22;20011;-84
2024/03/21 03:04:57;;;;;;;87.35;42.60;;;8.80;99.90;;;7.58;96.73;101258.09;6185685;22;20355;-84
2024/03/21 03:07:28;;;;;;;93.93;43.38;;;8.70;99.90;;;7.54;96.71;101251.19;6108820;22;20035;-84
2024/03/21 03:09:54;;;;;;;92.15;44.22;;;8.80;99.90;;;7.53;97.40;101251.22;6149188;22;20017;-84
2024/03/21 03:12:19;;;;;;;84.93;42.72;;;8.80;99.90;;;7.49;97.55;101249.59;6132671;22;20085;-82
2024/03/21 03:14:48;;;;;;;81.90;41.95;;;;;;;7.46;97.95;101254.91;6106579;22;20044;-84
2024/03/21 03:17:37;;;;;;;84.88;41.95;;;;;;;7.40;99.18;101248.06;6147825;22;20522;-83
2024/03/21 03:20:06;;;;;;;83.65;40.90;;;8.60;99.90;;;7.35;100.00;101247.31;6215509;22;20084;-84
2024/03/21 03:22:33;;;;;;;81.63;41.25;;;;;;;7.31;100.00;101248.28;6160267;22;20012;-83
2024/03/21 03:25:07;;;;;;;86.25;43.20;;;8.60;99.90;;;7.28;100.00;101243.09;6093945;22;20009;-84
2024/03/21 03:27:43;;;;;;;;;;;;;;;;;;;;;
2024/03/21 03:30:09;;;;;;;82.82;43.42;;;8.50;99.90;;;7.26;100.00;101234.47;6103316;22;20292;-84
2024/03/21 03:32:47;;;;;;;95.18;44.60;;;;;;;7.29;100.00;101223.88;6112926;23;20045;-84
2024/03/21 03:37:59;;;;;;;99.55;44.88;;;8.50;99.90;;;7.34;100.00;101224.63;6124137;22;20160;-83
2024/03/21 03:40:35;;;;;;;93.60;45.33;;;;;;;7.36;100.00;101230.69;6188884;22;20015;-84
2024/03/21 03:43:01;;;;;;;96.63;47.05;;;8.60;99.90;;;7.36;100.00;101222.81;6230602;22;20008;-83
2024/03/21 03:45:27;;;;;;;94.65;46.17;;;8.60;99.90;;;7.40;100.00;101225.31;6128287;22;20009;-84
2024/03/21 03:47:52;;;;;;;108.97;47.05;;;8.60;99.90;;;7.45;100.00;101226.97;6136264;22;20018;-84
2024/03/21 03:50:27;;;;;;;99.10;46.47;;;8.70;99.90;;;7.46;100.00;101232.19;6075607;22;20012;-83
2024/03/21 03:53:03;;;;;;;;;;;;;;;;;;;;;
2024/03/21 03:55:29;;;;;;;;;;;8.70;99.90;;;7.44;100.00;101222.66;6224135;22;20086;-84
2024/03/21 03:57:57;;;;;;;82.97;40.77;;;;;;;7.38;100.00;101227.13;6112646;22;19927;-83
2024/03/21 04:00:26;;;;;;;89.65;42.65;;;8.60;99.90;;;7.34;100.00;101222.00;6190412;22;20062;-83
2024/03/21 04:03:00;;;;;;;101.05;45.47;;;8.60;99.90;;;7.30;100.00;101209.88;6110121;22;20013;-83
2024/03/21 04:05:26;;;;;;;90.57;43.78;;;8.60;99.90;;;7.34;100.00;101227.25;6087781;22;20012;-84
2024/03/21 04:08:04;;;;;;;93.85;43.50;;;8.60;99.90;;;7.34;100.00;101225.50;6073174;22;20366;-83
2024/03/21 04:10:30;;;;;;;96.55;45.30;;;8.60;99.90;;;7.36;100.00;101220.22;6050328;22;20082;-83
2024/03/21 04:13:06;;;;;;;;;;;;;;;;;;;;;
2024/03/21 04:15:34;;;;;;;;;;;8.60;99.90;;;7.37;100.00;101216.72;6162041;22;20083;-83
2024/03/21 04:18:00;;;;;;;99.40;44.85;;;8.60;99.90;;;7.38;100.00;101207.94;6148987;22;19935;-82
2024/03/21 04:20:33;;;;;;;101.80;46.30;;;8.60;99.90;;;7.38;100.00;101207.94;6147491;22;20023;-84
2024/03/21 04:22:59;;;;;;;96.55;45.92;;;8.60;99.90;;;7.40;100.00;101214.00;6125624;22;20087;-83
2024/03/21 04:25:25;;;;;;;103.13;46.42;;;8.60;99.90;;;7.39;100.00;101210.53;6106103;22;20020;-84
2024/03/21 04:27:51;;;;;;;97.72;45.22;;;;;;;7.37;100.00;101211.47;6179311;22;20035;-84
2024/03/21 04:30:17;;;;;;;107.60;48.70;;;8.60;99.90;;;7.35;100.00;101205.41;6195777;22;20549;-84
2024/03/21 04:32:52;;;;;;;105.57;46.83;;;8.60;99.90;;;7.40;100.00;101208.75;6123880;22;20015;-83
2024/03/21 04:35:18;;;;;;;101.00;44.75;;;;;;;7.39;100.00;101202.66;6250580;22;20051;-84
2024/03/21 04:38:01;;;;;;;118.57;48.22;;;8.70;99.90;;;7.41;100.00;101194.78;6131188;22;20434;-84
2024/03/21 04:40:39;;;;;;;104.60;45.70;;;;;;;7.45;100.00;101198.16;6194481;22;20027;-83
2024/03/21 04:43:13;;;;;;;113.22;49.58;;;8.70;99.90;;;7.42;100.00;101193.00;6144499;22;20451;-83
2024/03/21 04:45:39;;;;;;;105.68;46.05;;;8.70;99.90;;;7.48;100.00;101206.81;6142888;22;20039;-83
2024/03/21 04:48:08;;;;;;;114.53;49.35;;;8.70;99.90;;;7.49;100.00;101208.50;6173026;22;20115;-83
2024/03/21 04:50:34;;;;;;;114.18;49.00;;;;;;;7.48;100.00;101201.56;6069265;22;20016;-84
2024/03/21 04:53:08;;;;;;;114.75;48.45;;;8.70;99.90;;;7.46;100.00;101203.34;6137411;22;20008;-83
2024/03/21 04:55:37;;;;;;;116.55;49.08;;;;;;;7.48;100.00;101203.34;6085731;22;20511;-85
2024/03/21 04:58:17;;;;;;;120.97;50.05;;;8.70;99.90;;;7.50;100.00;101201.53;6086344;22;20008;-84
2024/03/21 05:00:49;;;;;;;120.65;50.67;;;8.70;99.90;;;7.50;100.00;101199.75;6165782;22;20036;-85
2024/03/21 05:03:17;;;;;;;115.47;49.80;;;8.70;99.90;;;7.50;100.00;101201.53;6164489;22;20038;-85
2024/03/21 05:05:43;;;;;;;128.90;52.45;;;8.70;99.90;;;7.50;100.00;101191.91;6191614;22;20667;-84
2024/03/21 05:08:09;;;;;;;140.00;53.15;;;8.70;99.90;;;7.52;100.00;101197.97;6188565;23;20008;-84
2024/03/21 05:10:58;;;;;;;134.25;52.47;;;;;;;7.54;100.00;101192.69;6213086;22;20081;-84
2024/03/21 05:13:47;;;;;;;113.70;49.05;;;;;;;7.52;100.00;101197.97;6138133;22;20031;-85
2024/03/21 05:16:33;;;;;;;111.10;46.85;;;8.70;99.90;;;7.51;100.00;101200.63;6148543;22;20016;-85
2024/03/21 05:18:59;;;;;;;124.63;50.80;;;8.70;99.90;;;7.48;100.00;101198.94;6123531;23;20027;-84
2024/03/21 05:21:27;;;;;;;138.77;53.85;;;8.80;99.90;;;7.53;100.00;101202.28;6156284;23;20264;-84
2024/03/21 05:24:00;;;;;;;147.55;53.33;;;8.80;99.90;;;7.55;100.00;101197.03;6100348;22;20113;-84
2024/03/21 05:26:29;;;;;;;153.55;54.72;;;;;;;7.57;100.00;101203.94;6105694;23;20020;-84
2024/03/21 05:29:21;;;;;;;151.15;53.63;;;8.80;99.90;;;7.60;100.00;101202.97;6120874;23;20028;-85
2024/03/21 05:31:49;;;;;;;146.13;52.75;;;8.80;99.90;;;7.59;100.00;101202.13;6128553;22;20503;-85
2024/03/21 05:34:17;;;;;;;162.93;55.03;;;8.90;99.90;;;7.64;100.00;101206.41;6065487;22;20022;-84
2024/03/21 05:36:57;;;;;;;157.75;53.88;;;8.90;99.90;;;7.67;100.00;101198.47;6052768;23;20117;-84
2024/03/21 05:39:37;;;;;;;145.25;54.50;;;8.90;99.90;;;7.68;100.00;101208.03;6113736;23;20019;-85
2024/03/21 05:42:10;;;;;;;146.82;54.35;;;8.90;99.90;;;7.70;100.00;101212.31;6088504;23;20088;-84
2024/03/21 05:44:36;;;;;;;164.27;58.50;;;8.90;99.90;;;7.73;100.00;101204.41;6082315;23;20020;-84
2024/03/21 05:47:28;;;;;;;160.07;56.92;;;9.00;99.90;;;7.76;100.00;101209.53;6045976;23;20029;-83
2024/03/21 05:49:59;;;;;;;167.55;56.40;;;;;;;7.80;100.00;101223.44;6069716;23;20074;-84
2024/03/21 05:52:36;;;;;;;163.18;56.35;;;9.00;99.90;;;7.84;100.00;101213.72;6088132;23;20020;-84
2024/03/21 05:55:13;;;;;;;;;;;;;;;;;;;;;
2024/03/21 05:57:39;;;;;;;160.15;55.58;;;;;;;7.91;100.00;101207.41;6065698;23;20097;-84
2024/03/21 06:00:08;;;;;;;150.98;56.47;;;9.10;99.90;;;7.93;100.00;101209.09;6135480;23;20021;-84
2024/03/21 06:02:54;;;;;;;;;;;;;;;;;;;;;
2024/03/21 06:05:25;;;;;;;155.60;56.90;;;9.20;99.90;;;8.04;100.00;101210.56;6024635;23;20520;-84
2024/03/21 06:07:51;;;;;;;153.43;55.53;;;9.30;99.90;;;8.10;100.00;101215.59;5978128;23;20081;-84
2024/03/21 06:10:17;;;;;;;153.25;54.90;;;9.30;99.90;;;8.16;100.00;101212.81;5973793;23;20011;-84
2024/03/21 06:12:49;;;;;;;154.55;56.97;;;9.40;99.90;;;8.21;100.00;101224.06;6023248;23;20014;-84
2024/03/21 06:15:17;;;;;;;159.32;56.53;;;9.40;99.90;;;8.24;100.00;101210.84;6065953;23;20013;-84
2024/03/21 06:17:46;;;;;;;167.50;56.83;;;9.50;99.90;;;8.30;100.00;101209.81;6034990;23;20129;-84
2024/03/21 06:20:20;;;;;;;152.85;56.13;;;9.50;99.90;;;8.39;100.00;101220.03;6050706;23;20013;-84
2024/03/21 06:22:49;;;;;;;150.73;54.78;;;9.60;99.90;;;8.42;100.00;101219.94;6033281;23;20026;-83
2024/03/21 06:25:30;;;;;;;144.38;55.70;;;9.60;99.90;;;8.48;100.00;101216.28;6036383;23;20056;-84
2024/03/21 06:28:01;;;;;;;149.98;52.70;;;9.60;99.90;;;8.52;100.00;101218.78;6023696;23;20013;-84
2024/03/21 06:30:27;;;;;;;143.18;54.60;;;;;;;8.53;100.00;101217.00;5963169;23;20010;-84
2024/03/21 06:32:53;;;;;;;143.30;53.78;;;9.70;99.90;;;8.59;100.00;101214.19;6081173;23;20073;-84
2024/03/21 06:35:20;;;;;;;153.02;55.70;;;9.80;99.90;;;8.62;100.00;101214.97;5993220;23;20020;-84
2024/03/21 06:37:53;;;;;;;139.48;53.10;;;9.80;99.90;;;8.69;100.00;101214.78;6018598;23;20063;-83
2024/03/21 06:40:20;;;;;;;123.75;51.38;;;9.90;99.90;;;8.74;100.00;101211.09;5981450;23;20019;-85
2024/03/21 06:42:48;;;;;;;137.38;53.22;;;9.90;99.90;;;8.79;100.00;101217.06;6043541;23;20653;-84
2024/03/21 06:45:22;;;;;;;135.60;54.25;;;11.10;99.90;;;8.84;100.00;101219.56;5960134;23;20025;-84
2024/03/21 06:47:50;;;;;;;135.90;53.40;;;10.00;99.90;;;8.89;100.00;101222.88;6003468;23;20018;-85
2024/03/21 06:50:18;;;;;;;134.52;52.20;;;10.10;99.90;;;8.93;100.00;101224.50;6079382;23;20017;-85
2024/03/21 06:52:51;;;;;;;137.13;53.47;;;;;;;8.98;100.00;101226.97;6028061;23;20025;-82
2024/03/21 06:55:18;;;;;;;135.23;52.80;;;10.10;99.90;;;9.00;100.00;101228.66;6071192;23;20014;-83
2024/03/21 06:58:13;;;;;;;120.32;50.15;;;10.20;99.90;;;9.02;100.00;101225.97;6007330;23;20045;-85
2024/03/21 07:00:39;;;;;;;120.95;50.10;;;10.20;99.90;;;9.01;100.00;101217.25;5990203;23;20149;-84
2024/03/21 07:03:05;;;;;;;120.90;50.47;;;10.20;99.90;;;9.08;100.00;101230.19;6024011;23;20017;-84
2024/03/21 07:05:38;;;;;;;128.18;52.40;;;10.30;99.90;;;9.12;100.00;101231.81;6032928;23;20025;-84
2024/03/21 07:08:07;;;;;;;138.13;58.33;;;10.30;99.90;;;9.14;100.00;101233.47;6111564;23;20544;-84
2024/03/21 07:10:33;;;;;;;159.30;64.35;;;10.30;99.90;;;9.20;100.00;101241.16;6047717;23;20060;-84
2024/03/21 07:13:06;;;;;;;149.90;64.10;;;10.40;99.90;;;9.23;100.00;101225.28;6054148;23;20029;-83
2024/03/21 07:15:32;;;;;;;143.77;61.35;;;10.50;99.90;;;9.33;100.00;101238.13;6024971;23;20022;-84
2024/03/21 07:17:58;;;;;;;149.23;58.13;;;10.50;99.90;;;9.36;100.00;101238.88;6036667;23;20052;-83
2024/03/21 07:20:26;;;;;;;146.98;56.22;;;10.50;99.90;;;9.42;100.00;101238.69;6017828;23;20078;-83
2024/03/21 07:22:59;;;;;;;141.80;55.97;;;10.60;99.90;;;9.46;100.00;101239.44;6063372;23;20009;-83
2024/03/21 07:25:27;;;;;;;153.05;58.25;;;10.70;99.90;;;9.53;100.00;101237.47;6036513;23;20021;-85
2024/03/21 07:28:01;;;;;;;138.73;57.13;;;10.70;99.90;;;9.60;100.00;101246.84;6008019;23;20025;-84
2024/03/21 07:30:30;;;;;;;143.55;57.17;;;10.70;99.90;;;9.67;100.00;101247.50;6093494;23;20030;-84
2024/03/21 07:32:56;;;;;;;141.30;57.85;;;10.80;99.90;;;9.74;100.00;101247.25;6074349;23;20025;-83
2024/03/21 07:35:22;;;;;;;135.00;56.75;;;10.90;99.90;;;9.81;100.00;101253.16;6029146;23;20081;-83
2024/03/21 07:37:58;;;;;;;140.18;55.38;;;;;;;9.89;100.00;101248.44;6013246;23;20068;-85
2024/03/21 07:40:32;;;;;;;;;;;11.00;99.90;;;9.96;100.00;101246.50;6109535;23;20005;-85
2024/03/21 07:42:58;;;;;;;115.13;49.47;;;;;;;9.97;100.00;101240.28;6087410;23;20395;-84
2024/03/21 07:45:24;;;;;;;124.93;52.05;;;11.10;99.90;;;10.04;100.00;101242.66;6141693;23;20033;-84
2024/03/21 07:47:50;;;;;;;110.93;49.80;;;;;;;10.10;100.00;101245.97;6054428;23;20096;-84
2024/03/21 07:50:28;;;;;;;115.35;51.10;;;11.20;99.90;;;10.18;100.00;101250.03;6035912;23;20009;-84
2024/03/21 07:53:03;;;;;;;;;;;;;;;;;;;;;
2024/03/21 07:55:30;;;;;;;104.32;48.55;;;11.40;99.90;;;10.32;100.00;101240.81;6053896;23;20106;-84
2024/03/21 07:57:56;;;;;;;103.72;50.00;;;11.50;99.90;;;10.41;100.00;101245.72;5964068;23;20444;-84
2024/03/21 08:00:22;;;;;;;111.13;49.08;;;11.50;99.90;;;10.49;100.00;101241.03;6000560;23;20026;-83
2024/03/21 08:02:48;;;;;;;113.88;48.30;;;11.60;99.90;;;10.57;100.00;101238.13;5951920;23;20025;-84
2024/03/21 08:05:13;;;;;;;96.05;44.75;;;11.70;99.90;;;10.64;100.00;101231.69;5977592;23;20016;-84
2024/03/21 08:07:48;;;;;;;91.15;44.22;;;11.80;99.90;;;10.72;100.00;101234.88;6107002;23;20059;-83
2024/03/21 08:10:28;;;;;;;94.53;44.35;;;11.90;99.90;;;10.79;100.00;101219.69;6075900;23;20045;-84
2024/03/21 08:12:54;;;;;;;92.53;44.97;;;11.90;99.90;;;10.90;100.00;101216.63;6042083;23;20010;-84
2024/03/21 08:15:20;;;;;;;90.38;42.22;;;12.00;99.90;;;11.03;100.00;101223.13;6061358;23;20013;-84
2024/03/21 08:18:09;;;;;;;80.53;40.65;;;;;;;11.12;100.00;101228.00;6070443;23;20018;-84
2024/03/21 08:20:35;;;;;;;76.88;39.50;;;;;;;11.16;100.00;101231.38;6070370;23;20025;-83
2024/03/21 08:23:01;;;;;;;82.35;41.88;;;12.30;99.90;;;11.19;100.00;101234.78;6017150;23;20021;-83
2024/03/21 08:25:27;;;;;;;80.28;39.10;;;12.30;99.90;;;11.22;100.00;101232.00;6061291;23;20021;-82
2024/03/21 08:28:00;;;;;;;82.38;39.53;;;12.40;99.90;;;11.29;100.00;101229.97;6049702;23;20403;-84
2024/03/21 08:30:26;;;;;;;79.80;40.42;;;12.40;99.90;;;11.35;100.00;101226.22;6028719;23;20017;-85
2024/03/21 08:32:52;;;;;;;74.30;36.88;;;12.50;99.90;;;11.42;100.00;101225.03;6032186;23;20013;-83
2024/03/21 08:35:18;;;;;;;74.38;38.20;;;12.50;99.90;;;11.55;100.00;101228.84;6008554;23;20084;-83
2024/03/21 08:37:45;;;;;;;73.90;40.17;;;12.70;99.90;;;11.68;100.00;101243.25;6039403;23;20009;-83
2024/03/21 08:40:19;;;;;;;64.82;35.30;;;12.80;99.90;;;11.83;100.00;101235.59;6080862;23;20036;-85
2024/03/21 08:42:46;;;;;;;65.43;35.60;;;12.90;99.90;;;11.84;100.00;101240.81;6088595;23;20020;-85
2024/03/21 08:45:11;;;;;;;66.88;34.63;;;12.90;99.90;;;11.83;100.00;101235.59;6055620;23;20541;-84
2024/03/21 08:47:38;;;;;;;64.78;35.50;;;13.00;99.90;;;11.87;100.00;101235.38;6072434;23;20025;-84
2024/03/21 08:50:12;;;;;;;63.22;35.33;;;13.00;99.90;;;11.95;100.00;101242.16;6087245;23;20005;-85
2024/03/21 08:52:38;;;;;;;63.28;33.88;;;13.00;99.90;;;12.01;100.00;101240.09;6090125;23;20021;-85
2024/03/21 08:55:05;;;;;;;56.50;32.70;;;13.10;99.90;;;12.08;100.00;101241.53;6035345;23;20009;-84
2024/03/21 08:57:38;;;;;;;54.13;30.85;;;13.20;99.90;;;12.13;100.00;101236.03;6000895;23;20076;-84
2024/03/21 09:00:05;;;;;;;52.70;30.80;;;;;;;12.15;100.00;101238.63;6070041;23;20029;-83
2024/03/21 09:02:31;;;;;;;55.83;30.83;;;13.20;99.90;;;12.15;100.00;101241.25;6045550;23;20070;-84
2024/03/21 09:04:58;;;;;;;47.78;29.38;;;;;;;12.19;100.00;101240.19;6002346;23;20026;-84
2024/03/21 09:07:31;;;;;;;52.50;30.17;;;13.30;99.90;;;12.17;100.00;101248.19;6083515;23;20022;-83
2024/03/21 09:09:58;;;;;;;55.38;29.65;;;13.30;99.90;;;12.11;100.00;101253.72;6007586;23;20485;-84
2024/03/21 09:12:24;;;;;;;49.97;28.20;;;13.30;99.90;;;12.15;100.00;101262.38;6071666;23;20791;-83
2024/03/21 09:14:50;;;;;;;52.35;29.75;;;13.20;99.90;;;12.11;100.00;101261.66;6060517;23;20509;-82
2024/03/21 09:17:20;;;;;;;43.47;26.85;;;13.20;99.90;;;12.07;100.00;101263.59;6156687;23;20018;-82
2024/03/21 09:19:46;;;;;;;50.40;28.42;;;13.20;99.90;;;12.04;100.00;101274.25;6084453;23;20015;-82
2024/03/21 09:22:12;;;;;;;47.72;26.60;;;13.20;99.90;;;11.97;100.00;101271.97;6107096;23;20425;-82
2024/03/21 09:24:44;;;;;;;44.65;27.13;;;13.10;99.90;;;12.04;100.00;101286.59;6097144;23;20009;-82
2024/03/21 09:27:13;;;;;;;50.33;28.20;;;13.10;99.90;;;12.05;100.00;101273.34;6089364;23;20017;-85
2024/03/21 09:29:42;;;;;;;45.08;28.10;;;13.20;99.90;;;12.13;100.00;101280.06;6074918;23;20019;-83
2024/03/21 09:32:08;;;;;;;45.25;26.13;;;13.20;99.90;;;12.15;100.00;101272.94;6089968;23;20012;-82
2024/03/21 09:34:44;;;;;;;43.25;26.55;;;13.20;99.90;;;12.22;100.00;101274.38;6132117;23;20409;-81
2024/03/21 09:37:10;;;;;;;40.22;26.02;;;13.30;99.90;;;12.24;100.00;101280.44;6076759;23;20024;-84
2024/03/21 09:39:36;;;;;;;46.83;25.23;;;13.40;99.90;;;12.31;100.00;101287.19;6095161;23;20036;-84
2024/03/21 09:42:15;;;;;;;37.28;23.48;;;13.40;99.90;;;12.41;100.00;101285.81;6104885;23;20126;-83
2024/03/21 09:44:53;;;;;;;39.03;25.30;;;13.50;99.90;;;12.47;100.00;101287.34;6080724;23;20024;-83
2024/03/21 09:47:23;;;;;;;42.30;26.17;;;13.60;99.90;;;12.65;100.00;101282.97;6102377;23;20014;-82
2024/03/21 09:49:58;;;;;;;45.05;27.15;;;13.80;99.90;;;12.92;100.00;101284.34;6106866;23;20413;-83
2024/03/21 09:52:37;;;;;;;41.30;25.35;;;14.00;99.90;;;13.25;100.00;101283.63;6075313;23;20018;-83
2024/03/21 09:55:44;;;;;;;39.85;23.70;;;14.40;99.90;;;13.56;100.00;101284.78;6112285;23;20013;-83
2024/03/21 09:58:14;;;;;;;32.87;22.50;;;14.70;99.90;;;13.79;100.00;101293.38;6073188;23;20009;-82
2024/03/21 10:00:42;;;;;;;34.30;22.83;;;14.80;99.90;;;13.93;100.00;101293.50;6066878;23;20279;-84
2024/03/21 10:03:15;;;;;;;29.42;20.27;;;14.90;99.90;;;13.94;100.00;101293.44;6105929;23;20136;-82
2024/03/21 10:05:45;;;;;;;34.28;21.52;;;14.90;99.90;;;13.86;100.00;101295.59;6113851;23;20021;-85
2024/03/21 10:08:19;;;;;;;30.60;22.02;;;14.90;99.90;;;13.79;100.00;101299.50;6079331;23;20485;-83
2024/03/21 10:10:48;;;;;;;34.10;22.05;;;14.90;99.90;;;13.75;100.00;101305.91;6074077;23;20044;-82
2024/03/21 10:13:23;;;;;;;28.67;19.88;;;14.90;99.90;;;13.80;100.00;101306.53;6082430;23;20133;-84
2024/03/21 10:15:50;;;;;;;29.77;19.45;;;14.90;99.90;;;13.80;98.89;101306.53;6060364;23;20228;-82
2024/03/21 10:18:16;;;;;;;26.92;18.92;;;14.90;99.90;;;13.80;98.73;101316.25;6076337;23;20297;-83
2024/03/21 10:20:49;;;;;;;26.88;18.85;;;14.80;99.90;;;13.74;97.72;101312.13;6066440;23;20315;-82
2024/03/21 10:23:19;;;;;;;25.50;17.85;;;14.80;99.90;;;13.57;96.65;101301.53;6131985;23;20043;-83
2024/03/21 10:25:53;;;;;;;28.42;17.42;;;14.80;99.90;;;13.71;96.81;101323.75;6077683;23;20010;-84
2024/03/21 10:28:26;;;;;;;25.30;16.85;;;14.80;99.90;;;13.84;98.23;101317.81;6053436;23;20005;-83
2024/03/21 10:31:02;;;;;;;23.63;15.38;;;14.80;99.90;;;13.87;96.23;101325.59;6077063;23;20040;-83
2024/03/21 10:33:42;;;;;;;24.08;15.75;;;14.90;99.90;;;14.02;95.90;101332.75;6052058;23;20009;-83
2024/03/21 10:36:17;;;;;;;24.23;15.20;;;;;;;14.11;94.17;101339.38;6090980;23;20048;-84
2024/03/21 10:38:58;;;;;;;22.13;15.77;;;15.10;99.90;;;14.07;93.43;101333.38;6111523;23;20361;-84
2024/03/21 10:41:29;;;;;;;26.55;16.25;;;15.10;99.90;;;13.99;93.87;101338.19;6109611;23;20244;-83
2024/03/21 10:44:20;;;;;;;23.33;15.63;;;15.10;99.90;;;14.11;95.10;101336.72;6101656;23;20056;-83
2024/03/21 10:46:47;;;;;;;17.70;13.60;;;15.10;99.90;;;13.95;94.87;101345.47;6122937;23;20044;-83
2024/03/21 10:49:20;;;;;;;22.40;14.80;;;15.10;99.90;;;13.87;93.79;101338.84;6104277;23;20009;-85
2024/03/21 10:51:52;;;;;;;22.38;13.70;;;15.00;99.90;;;13.78;93.33;101345.47;6093411;23;20034;-83
2024/03/21 10:54:26;;;;;;;4.80;3.15;;;14.40;99.90;;;12.11;94.78;101340.84;6148002;23;20020;-84
2024/03/21 10:56:59;;;;;;;2.72;2.00;;;13.70;99.90;;;11.31;99.46;101346.75;6103682;23;20033;-82
2024/03/21 10:59:35;;;;;;;3.90;3.08;;;13.10;99.90;;;10.92;100.00;101336.84;6129515;23;20037;-83
2024/03/21 11:02:13;;;;;;;3.73;2.20;;;12.60;99.90;;;10.61;100.00;101324.84;6096867;23;20071;-82
2024/03/21 11:04:42;;;;;;;5.28;3.08;;;12.40;99.90;;;10.55;100.00;101332.13;6099804;23;20029;-83
2024/03/21 11:07:17;;;;;;;6.22;3.42;;;12.10;99.90;;;10.45;100.00;101336.84;6134613;23;20382;-83
2024/03/21 11:10:00;;;;;;;7.32;4.35;;;12.10;99.90;;;10.45;100.00;101331.56;6114284;23;20479;-82
2024/03/21 11:12:35;;;;;;;5.97;3.90;;;11.90;99.90;;;10.23;100.00;101347.25;6119347;23;20369;-82